sensor_id;sensor_type;location;lat;lon;timestamp;P1;durP1;ratioP1;P2;durP2;ratioP2
11743;SDS011;5929;51.906;7.674;2023-06-04T00:02:19;7.47;;;1.92;;
11743;SDS011;5929;51.906;7.674;2023-06-04T00:04:45;5.93;;;1.55;;
11743;SDS011;5929;51.906;7.674;2023-06-04T00:07:12;5.22;;;1.50;;
11743;SDS011;5929;51.906;7.674;2023-06-04T00:09:39;5.95;;;2.00;;
11743;SDS011;5929;51.906;7.674;2023-06-04T00:12:08;5.20;;;1.60;;
11743;SDS011;5929;51.906;7.674;2023-06-04T00:14:35;5.53;;;1.33;;
11743;SDS011;5929;51.906;7.674;2023-06-04T00:17:04;5.95;;;1.95;;
11743;SDS011;5929;51.906;7.674;2023-06-04T00:19:31;5.65;;;1.55;;
11743;SDS011;5929;51.906;7.674;2023-06-04T00:21:59;4.93;;;1.50;;
11743;SDS011;5929;51.906;7.674;2023-06-04T00:24:26;4.72;;;1.40;;
11743;SDS011;5929;51.906;7.674;2023-06-04T00:26:53;4.82;;;1.60;;
11743;SDS011;5929;51.906;7.674;2023-06-04T00:29:21;6.10;;;1.70;;
11743;SDS011;5929;51.906;7.674;2023-06-04T00:31:48;5.25;;;1.48;;
11743;SDS011;5929;51.906;7.674;2023-06-04T00:34:16;4.03;;;1.45;;
11743;SDS011;5929;51.906;7.674;2023-06-04T00:36:43;5.57;;;1.60;;
11743;SDS011;5929;51.906;7.674;2023-06-04T00:39:10;3.58;;;1.30;;
11743;SDS011;5929;51.906;7.674;2023-06-04T00:41:37;5.10;;;1.73;;
11743;SDS011;5929;51.906;7.674;2023-06-04T00:44:03;3.97;;;1.65;;
11743;SDS011;5929;51.906;7.674;2023-06-04T00:46:32;6.15;;;1.90;;
11743;SDS011;5929;51.906;7.674;2023-06-04T00:49:01;4.80;;;1.55;;
11743;SDS011;5929;51.906;7.674;2023-06-04T00:51:29;4.43;;;1.58;;
11743;SDS011;5929;51.906;7.674;2023-06-04T00:53:57;7.70;;;1.80;;
11743;SDS011;5929;51.906;7.674;2023-06-04T00:56:26;5.45;;;2.17;;
11743;SDS011;5929;51.906;7.674;2023-06-04T00:58:53;5.15;;;1.75;;
11743;SDS011;5929;51.906;7.674;2023-06-04T01:01:23;5.63;;;2.03;;
11743;SDS011;5929;51.906;7.674;2023-06-04T01:03:57;6.60;;;1.70;;
11743;SDS011;5929;51.906;7.674;2023-06-04T01:06:28;4.47;;;1.67;;
11743;SDS011;5929;51.906;7.674;2023-06-04T01:09:05;4.57;;;2.05;;
11743;SDS011;5929;51.906;7.674;2023-06-04T01:11:32;6.38;;;1.60;;
11743;SDS011;5929;51.906;7.674;2023-06-04T01:14:00;6.35;;;1.70;;
11743;SDS011;5929;51.906;7.674;2023-06-04T01:16:28;6.07;;;2.00;;
11743;SDS011;5929;51.906;7.674;2023-06-04T01:19:02;5.25;;;1.85;;
11743;SDS011;5929;51.906;7.674;2023-06-04T01:21:46;5.72;;;1.75;;
11743;SDS011;5929;51.906;7.674;2023-06-04T01:24:16;6.93;;;1.98;;
11743;SDS011;5929;51.906;7.674;2023-06-04T01:26:47;6.45;;;1.85;;
11743;SDS011;5929;51.906;7.674;2023-06-04T01:29:15;4.63;;;1.77;;
11743;SDS011;5929;51.906;7.674;2023-06-04T01:31:42;6.60;;;1.70;;
11743;SDS011;5929;51.906;7.674;2023-06-04T01:34:11;4.75;;;1.73;;
11743;SDS011;5929;51.906;7.674;2023-06-04T01:36:38;7.75;;;1.98;;
11743;SDS011;5929;51.906;7.674;2023-06-04T01:39:05;7.28;;;1.90;;
11743;SDS011;5929;51.906;7.674;2023-06-04T01:41:31;5.63;;;1.80;;
11743;SDS011;5929;51.906;7.674;2023-06-04T01:43:58;6.88;;;1.80;;
11743;SDS011;5929;51.906;7.674;2023-06-04T01:46:25;4.72;;;1.60;;
11743;SDS011;5929;51.906;7.674;2023-06-04T01:48:52;5.80;;;2.10;;
11743;SDS011;5929;51.906;7.674;2023-06-04T01:51:20;5.63;;;1.70;;
11743;SDS011;5929;51.906;7.674;2023-06-04T02:52:59;6.85;;;2.35;;
11743;SDS011;5929;51.906;7.674;2023-06-04T02:55:26;5.15;;;2.20;;
11743;SDS011;5929;51.906;7.674;2023-06-04T02:57:53;5.63;;;2.40;;
11743;SDS011;5929;51.906;7.674;2023-06-04T03:00:20;4.57;;;2.25;;
11743;SDS011;5929;51.906;7.674;2023-06-04T03:02:47;4.97;;;2.20;;
11743;SDS011;5929;51.906;7.674;2023-06-04T03:05:15;6.32;;;2.30;;
11743;SDS011;5929;51.906;7.674;2023-06-04T03:07:43;8.82;;;2.75;;
11743;SDS011;5929;51.906;7.674;2023-06-04T03:10:13;5.78;;;2.78;;
11743;SDS011;5929;51.906;7.674;2023-06-04T03:12:42;6.53;;;2.40;;
11743;SDS011;5929;51.906;7.674;2023-06-04T03:15:10;9.18;;;2.20;;
11743;SDS011;5929;51.906;7.674;2023-06-04T03:17:37;6.82;;;2.95;;
11743;SDS011;5929;51.906;7.674;2023-06-04T03:20:04;5.90;;;2.40;;
11743;SDS011;5929;51.906;7.674;2023-06-04T03:22:32;5.93;;;2.58;;
11743;SDS011;5929;51.906;7.674;2023-06-04T03:25:00;5.82;;;2.38;;
11743;SDS011;5929;51.906;7.674;2023-06-04T03:27:30;7.95;;;2.97;;
11743;SDS011;5929;51.906;7.674;2023-06-04T03:29:56;8.63;;;2.63;;
11743;SDS011;5929;51.906;7.674;2023-06-04T03:32:26;6.85;;;2.60;;
11743;SDS011;5929;51.906;7.674;2023-06-04T03:34:52;6.97;;;2.60;;
11743;SDS011;5929;51.906;7.674;2023-06-04T03:37:19;7.75;;;2.60;;
11743;SDS011;5929;51.906;7.674;2023-06-04T03:39:46;10.77;;;2.85;;
11743;SDS011;5929;51.906;7.674;2023-06-04T03:42:15;5.93;;;2.53;;
11743;SDS011;5929;51.906;7.674;2023-06-04T03:44:43;5.78;;;2.50;;
11743;SDS011;5929;51.906;7.674;2023-06-04T03:47:11;5.40;;;2.17;;
11743;SDS011;5929;51.906;7.674;2023-06-04T03:49:38;5.55;;;2.03;;
11743;SDS011;5929;51.906;7.674;2023-06-04T03:52:05;6.75;;;2.35;;
11743;SDS011;5929;51.906;7.674;2023-06-04T03:54:32;6.80;;;2.30;;
11743;SDS011;5929;51.906;7.674;2023-06-04T03:56:59;5.00;;;2.38;;
11743;SDS011;5929;51.906;7.674;2023-06-04T03:59:27;7.38;;;2.28;;
11743;SDS011;5929;51.906;7.674;2023-06-04T04:01:55;7.10;;;2.70;;
11743;SDS011;5929;51.906;7.674;2023-06-04T04:04:22;7.20;;;2.35;;
11743;SDS011;5929;51.906;7.674;2023-06-04T04:06:49;6.55;;;2.33;;
11743;SDS011;5929;51.906;7.674;2023-06-04T04:09:16;5.40;;;2.13;;
11743;SDS011;5929;51.906;7.674;2023-06-04T04:11:43;7.28;;;2.13;;
11743;SDS011;5929;51.906;7.674;2023-06-04T04:14:09;4.80;;;2.15;;
11743;SDS011;5929;51.906;7.674;2023-06-04T04:16:36;6.05;;;2.05;;
11743;SDS011;5929;51.906;7.674;2023-06-04T04:19:04;4.88;;;1.88;;
11743;SDS011;5929;51.906;7.674;2023-06-04T04:21:33;4.95;;;2.13;;
11743;SDS011;5929;51.906;7.674;2023-06-04T04:24:01;6.53;;;2.28;;
11743;SDS011;5929;51.906;7.674;2023-06-04T04:26:28;6.90;;;2.63;;
11743;SDS011;5929;51.906;7.674;2023-06-04T04:28:55;5.72;;;2.33;;
11743;SDS011;5929;51.906;7.674;2023-06-04T04:33:52;7.75;;;2.30;;
11743;SDS011;5929;51.906;7.674;2023-06-04T04:36:22;7.00;;;2.38;;
11743;SDS011;5929;51.906;7.674;2023-06-04T04:38:49;6.13;;;2.15;;
11743;SDS011;5929;51.906;7.674;2023-06-04T04:41:19;5.82;;;2.85;;
11743;SDS011;5929;51.906;7.674;2023-06-04T04:43:47;6.55;;;2.53;;
11743;SDS011;5929;51.906;7.674;2023-06-04T04:46:14;6.82;;;2.17;;
11743;SDS011;5929;51.906;7.674;2023-06-04T04:48:42;7.28;;;2.47;;
11743;SDS011;5929;51.906;7.674;2023-06-04T04:51:08;7.82;;;2.45;;
11743;SDS011;5929;51.906;7.674;2023-06-04T04:53:37;7.22;;;2.47;;
11743;SDS011;5929;51.906;7.674;2023-06-04T04:56:03;5.53;;;2.47;;
11743;SDS011;5929;51.906;7.674;2023-06-04T04:58:30;6.75;;;2.42;;
11743;SDS011;5929;51.906;7.674;2023-06-04T05:00:57;5.10;;;2.40;;
11743;SDS011;5929;51.906;7.674;2023-06-04T05:03:24;5.40;;;2.17;;
11743;SDS011;5929;51.906;7.674;2023-06-04T05:05:51;5.53;;;2.67;;
11743;SDS011;5929;51.906;7.674;2023-06-04T05:08:18;6.22;;;2.55;;
11743;SDS011;5929;51.906;7.674;2023-06-04T05:10:46;5.82;;;2.17;;
11743;SDS011;5929;51.906;7.674;2023-06-04T05:13:13;6.55;;;2.58;;
11743;SDS011;5929;51.906;7.674;2023-06-04T05:15:40;6.60;;;2.33;;
11743;SDS011;5929;51.906;7.674;2023-06-04T05:18:07;6.28;;;2.40;;
11743;SDS011;5929;51.906;7.674;2023-06-04T05:20:34;7.88;;;2.42;;
11743;SDS011;5929;51.906;7.674;2023-06-04T05:23:02;5.57;;;1.85;;
11743;SDS011;5929;51.906;7.674;2023-06-04T05:25:30;7.82;;;2.50;;
11743;SDS011;5929;51.906;7.674;2023-06-04T05:27:58;6.38;;;2.20;;
11743;SDS011;5929;51.906;7.674;2023-06-04T05:30:25;7.32;;;2.80;;
11743;SDS011;5929;51.906;7.674;2023-06-04T05:32:52;5.60;;;2.10;;
11743;SDS011;5929;51.906;7.674;2023-06-04T05:35:19;9.02;;;2.20;;
11743;SDS011;5929;51.906;7.674;2023-06-04T05:37:46;6.10;;;1.85;;
11743;SDS011;5929;51.906;7.674;2023-06-04T05:40:18;5.75;;;2.05;;
11743;SDS011;5929;51.906;7.674;2023-06-04T05:42:46;5.20;;;2.05;;
11743;SDS011;5929;51.906;7.674;2023-06-04T05:45:15;7.95;;;2.08;;
11743;SDS011;5929;51.906;7.674;2023-06-04T05:47:42;6.93;;;2.60;;
11743;SDS011;5929;51.906;7.674;2023-06-04T05:50:09;4.60;;;2.30;;
11743;SDS011;5929;51.906;7.674;2023-06-04T05:52:36;5.78;;;2.13;;
11743;SDS011;5929;51.906;7.674;2023-06-04T05:55:03;5.97;;;2.28;;
11743;SDS011;5929;51.906;7.674;2023-06-04T05:57:32;5.88;;;2.42;;
11743;SDS011;5929;51.906;7.674;2023-06-04T05:59:59;7.30;;;2.30;;
11743;SDS011;5929;51.906;7.674;2023-06-04T06:02:27;4.93;;;2.00;;
11743;SDS011;5929;51.906;7.674;2023-06-04T06:04:55;10.88;;;2.53;;
11743;SDS011;5929;51.906;7.674;2023-06-04T06:07:22;8.50;;;2.30;;
11743;SDS011;5929;51.906;7.674;2023-06-04T06:09:49;6.57;;;2.15;;
11743;SDS011;5929;51.906;7.674;2023-06-04T06:12:16;5.78;;;2.28;;
11743;SDS011;5929;51.906;7.674;2023-06-04T06:14:43;4.00;;;1.90;;
11743;SDS011;5929;51.906;7.674;2023-06-04T06:17:09;8.38;;;2.40;;
11743;SDS011;5929;51.906;7.674;2023-06-04T06:19:38;4.97;;;2.20;;
11743;SDS011;5929;51.906;7.674;2023-06-04T06:22:05;5.30;;;2.10;;
11743;SDS011;5929;51.906;7.674;2023-06-04T06:24:32;7.13;;;2.03;;
11743;SDS011;5929;51.906;7.674;2023-06-04T06:26:59;6.45;;;2.28;;
11743;SDS011;5929;51.906;7.674;2023-06-04T06:29:26;7.75;;;2.10;;
11743;SDS011;5929;51.906;7.674;2023-06-04T06:31:52;6.10;;;1.90;;
11743;SDS011;5929;51.906;7.674;2023-06-04T06:34:19;5.10;;;2.05;;
11743;SDS011;5929;51.906;7.674;2023-06-04T06:36:47;5.35;;;2.15;;
11743;SDS011;5929;51.906;7.674;2023-06-04T06:39:14;6.30;;;1.80;;
11743;SDS011;5929;51.906;7.674;2023-06-04T06:41:41;4.80;;;1.85;;
11743;SDS011;5929;51.906;7.674;2023-06-04T06:44:08;5.32;;;1.65;;
11743;SDS011;5929;51.906;7.674;2023-06-04T06:46:35;9.23;;;2.22;;
11743;SDS011;5929;51.906;7.674;2023-06-04T06:49:02;6.60;;;2.17;;
11743;SDS011;5929;51.906;7.674;2023-06-04T06:51:29;6.68;;;2.05;;
11743;SDS011;5929;51.906;7.674;2023-06-04T06:53:57;5.57;;;2.10;;
11743;SDS011;5929;51.906;7.674;2023-06-04T06:56:24;6.07;;;2.13;;
11743;SDS011;5929;51.906;7.674;2023-06-04T06:58:51;4.68;;;1.90;;
11743;SDS011;5929;51.906;7.674;2023-06-04T07:01:18;7.07;;;2.20;;
11743;SDS011;5929;51.906;7.674;2023-06-04T07:03:45;5.50;;;2.00;;
11743;SDS011;5929;51.906;7.674;2023-06-04T07:06:11;6.68;;;1.80;;
11743;SDS011;5929;51.906;7.674;2023-06-04T07:08:38;4.55;;;1.75;;
11743;SDS011;5929;51.906;7.674;2023-06-04T07:11:08;4.60;;;1.85;;
11743;SDS011;5929;51.906;7.674;2023-06-04T07:13:37;5.60;;;1.77;;
11743;SDS011;5929;51.906;7.674;2023-06-04T07:16:04;5.78;;;2.08;;
11743;SDS011;5929;51.906;7.674;2023-06-04T07:18:31;5.28;;;2.00;;
11743;SDS011;5929;51.906;7.674;2023-06-04T07:20:58;6.32;;;1.95;;
11743;SDS011;5929;51.906;7.674;2023-06-04T07:23:25;5.45;;;1.70;;
11743;SDS011;5929;51.906;7.674;2023-06-04T07:25:54;4.82;;;1.98;;
11743;SDS011;5929;51.906;7.674;2023-06-04T07:28:23;5.85;;;1.95;;
11743;SDS011;5929;51.906;7.674;2023-06-04T07:30:50;5.25;;;1.85;;
11743;SDS011;5929;51.906;7.674;2023-06-04T07:33:17;3.83;;;1.50;;
11743;SDS011;5929;51.906;7.674;2023-06-04T07:35:44;5.97;;;1.85;;
11743;SDS011;5929;51.906;7.674;2023-06-04T07:38:11;5.28;;;1.70;;
11743;SDS011;5929;51.906;7.674;2023-06-04T07:40:37;8.82;;;2.10;;
11743;SDS011;5929;51.906;7.674;2023-06-04T07:43:04;6.20;;;2.05;;
11743;SDS011;5929;51.906;7.674;2023-06-04T07:45:32;6.80;;;1.58;;
11743;SDS011;5929;51.906;7.674;2023-06-04T07:47:59;6.55;;;1.58;;
11743;SDS011;5929;51.906;7.674;2023-06-04T07:50:26;5.63;;;1.45;;
11743;SDS011;5929;51.906;7.674;2023-06-04T07:52:53;3.97;;;1.58;;
11743;SDS011;5929;51.906;7.674;2023-06-04T07:55:20;7.47;;;1.65;;
11743;SDS011;5929;51.906;7.674;2023-06-04T07:57:47;4.97;;;1.83;;
11743;SDS011;5929;51.906;7.674;2023-06-04T08:00:15;4.95;;;1.40;;
11743;SDS011;5929;51.906;7.674;2023-06-04T08:02:44;5.18;;;2.00;;
11743;SDS011;5929;51.906;7.674;2023-06-04T08:05:10;4.97;;;1.55;;
11743;SDS011;5929;51.906;7.674;2023-06-04T08:07:38;7.05;;;1.60;;
11743;SDS011;5929;51.906;7.674;2023-06-04T08:10:06;7.22;;;1.55;;
11743;SDS011;5929;51.906;7.674;2023-06-04T08:12:33;4.32;;;1.80;;
11743;SDS011;5929;51.906;7.674;2023-06-04T08:15:00;6.00;;;1.50;;
11743;SDS011;5929;51.906;7.674;2023-06-04T08:17:26;5.88;;;1.65;;
11743;SDS011;5929;51.906;7.674;2023-06-04T08:19:55;3.85;;;1.30;;
11743;SDS011;5929;51.906;7.674;2023-06-04T08:22:24;3.95;;;1.55;;
11743;SDS011;5929;51.906;7.674;2023-06-04T08:24:52;5.85;;;1.55;;
11743;SDS011;5929;51.906;7.674;2023-06-04T08:27:19;4.40;;;1.65;;
11743;SDS011;5929;51.906;7.674;2023-06-04T08:29:46;3.95;;;1.58;;
11743;SDS011;5929;51.906;7.674;2023-06-04T08:32:13;4.45;;;1.40;;
11743;SDS011;5929;51.906;7.674;2023-06-04T08:34:39;7.22;;;1.60;;
11743;SDS011;5929;51.906;7.674;2023-06-04T08:37:08;5.35;;;1.42;;
11743;SDS011;5929;51.906;7.674;2023-06-04T08:39:35;3.97;;;1.40;;
11743;SDS011;5929;51.906;7.674;2023-06-04T08:42:04;4.20;;;1.73;;
11743;SDS011;5929;51.906;7.674;2023-06-04T08:44:33;9.45;;;1.60;;
11743;SDS011;5929;51.906;7.674;2023-06-04T08:47:01;9.10;;;1.90;;
11743;SDS011;5929;51.906;7.674;2023-06-04T08:49:30;5.10;;;1.33;;
11743;SDS011;5929;51.906;7.674;2023-06-04T08:52:01;5.90;;;1.80;;
11743;SDS011;5929;51.906;7.674;2023-06-04T08:54:29;3.72;;;1.30;;
11743;SDS011;5929;51.906;7.674;2023-06-04T08:56:57;4.10;;;1.40;;
11743;SDS011;5929;51.906;7.674;2023-06-04T08:59:24;3.50;;;1.55;;
11743;SDS011;5929;51.906;7.674;2023-06-04T09:01:51;5.57;;;1.60;;
11743;SDS011;5929;51.906;7.674;2023-06-04T09:04:20;3.22;;;1.17;;
11743;SDS011;5929;51.906;7.674;2023-06-04T09:06:47;4.28;;;1.20;;
11743;SDS011;5929;51.906;7.674;2023-06-04T09:09:15;4.70;;;1.70;;
11743;SDS011;5929;51.906;7.674;2023-06-04T09:11:46;4.35;;;1.50;;
11743;SDS011;5929;51.906;7.674;2023-06-04T09:14:17;4.03;;;1.30;;
11743;SDS011;5929;51.906;7.674;2023-06-04T09:16:45;3.97;;;1.02;;
11743;SDS011;5929;51.906;7.674;2023-06-04T09:19:12;6.13;;;1.15;;
11743;SDS011;5929;51.906;7.674;2023-06-04T09:21:47;4.28;;;1.20;;
11743;SDS011;5929;51.906;7.674;2023-06-04T09:24:17;5.07;;;1.30;;
11743;SDS011;5929;51.906;7.674;2023-06-04T09:26:47;3.75;;;1.38;;
11743;SDS011;5929;51.906;7.674;2023-06-04T09:29:14;6.38;;;1.20;;
11743;SDS011;5929;51.906;7.674;2023-06-04T09:31:41;3.22;;;1.10;;
11743;SDS011;5929;51.906;7.674;2023-06-04T09:34:11;4.18;;;1.40;;
11743;SDS011;5929;51.906;7.674;2023-06-04T09:36:38;3.33;;;1.25;;
11743;SDS011;5929;51.906;7.674;2023-06-04T09:39:14;3.40;;;1.10;;
11743;SDS011;5929;51.906;7.674;2023-06-04T09:41:41;7.57;;;1.45;;
11743;SDS011;5929;51.906;7.674;2023-06-04T09:44:10;4.47;;;1.13;;
11743;SDS011;5929;51.906;7.674;2023-06-04T09:46:37;4.07;;;1.17;;
11743;SDS011;5929;51.906;7.674;2023-06-04T09:49:04;2.47;;;1.00;;
11743;SDS011;5929;51.906;7.674;2023-06-04T09:51:32;5.93;;;1.40;;
11743;SDS011;5929;51.906;7.674;2023-06-04T09:53:59;3.95;;;1.27;;
11743;SDS011;5929;51.906;7.674;2023-06-04T09:56:27;3.70;;;1.33;;
11743;SDS011;5929;51.906;7.674;2023-06-04T09:58:55;5.00;;;1.42;;
11743;SDS011;5929;51.906;7.674;2023-06-04T10:01:27;4.68;;;1.30;;
11743;SDS011;5929;51.906;7.674;2023-06-04T10:03:57;3.20;;;1.00;;
11743;SDS011;5929;51.906;7.674;2023-06-04T10:06:28;4.38;;;1.13;;
11743;SDS011;5929;51.906;7.674;2023-06-04T10:08:58;4.00;;;1.10;;
11743;SDS011;5929;51.906;7.674;2023-06-04T10:11:31;3.40;;;1.27;;
11743;SDS011;5929;51.906;7.674;2023-06-04T10:14:02;5.72;;;1.15;;
11743;SDS011;5929;51.906;7.674;2023-06-04T10:16:34;4.53;;;1.00;;
11743;SDS011;5929;51.906;7.674;2023-06-04T10:19:04;5.00;;;1.55;;
11743;SDS011;5929;51.906;7.674;2023-06-04T10:21:31;5.07;;;1.25;;
11743;SDS011;5929;51.906;7.674;2023-06-04T10:24:00;3.55;;;1.23;;
11743;SDS011;5929;51.906;7.674;2023-06-04T10:26:27;4.20;;;1.25;;
11743;SDS011;5929;51.906;7.674;2023-06-04T10:28:55;3.50;;;1.10;;
11743;SDS011;5929;51.906;7.674;2023-06-04T10:31:23;2.53;;;0.95;;
11743;SDS011;5929;51.906;7.674;2023-06-04T10:33:54;5.18;;;1.35;;
11743;SDS011;5929;51.906;7.674;2023-06-04T10:36:22;2.83;;;1.08;;
11743;SDS011;5929;51.906;7.674;2023-06-04T10:38:50;5.63;;;1.30;;
11743;SDS011;5929;51.906;7.674;2023-06-04T10:41:18;3.20;;;1.25;;
11743;SDS011;5929;51.906;7.674;2023-06-04T10:43:46;4.38;;;1.00;;
11743;SDS011;5929;51.906;7.674;2023-06-04T10:46:16;3.85;;;0.90;;
11743;SDS011;5929;51.906;7.674;2023-06-04T10:48:45;4.32;;;1.27;;
11743;SDS011;5929;51.906;7.674;2023-06-04T10:51:14;3.95;;;1.05;;
11743;SDS011;5929;51.906;7.674;2023-06-04T10:53:41;5.22;;;1.20;;
11743;SDS011;5929;51.906;7.674;2023-06-04T10:56:08;3.00;;;1.10;;
11743;SDS011;5929;51.906;7.674;2023-06-04T10:58:35;5.68;;;1.38;;
11743;SDS011;5929;51.906;7.674;2023-06-04T11:01:02;4.32;;;1.00;;
11743;SDS011;5929;51.906;7.674;2023-06-04T11:03:34;3.80;;;1.00;;
11743;SDS011;5929;51.906;7.674;2023-06-04T11:06:02;3.30;;;1.15;;
11743;SDS011;5929;51.906;7.674;2023-06-04T11:08:41;4.85;;;1.35;;
11743;SDS011;5929;51.906;7.674;2023-06-04T11:11:10;4.30;;;1.27;;
11743;SDS011;5929;51.906;7.674;2023-06-04T11:13:38;5.18;;;1.38;;
11743;SDS011;5929;51.906;7.674;2023-06-04T11:16:13;5.15;;;1.40;;
11743;SDS011;5929;51.906;7.674;2023-06-04T11:18:41;5.03;;;1.17;;
11743;SDS011;5929;51.906;7.674;2023-06-04T11:21:08;4.82;;;1.35;;
11743;SDS011;5929;51.906;7.674;2023-06-04T11:23:36;5.15;;;1.27;;
11743;SDS011;5929;51.906;7.674;2023-06-04T11:26:05;3.33;;;1.10;;
11743;SDS011;5929;51.906;7.674;2023-06-04T11:28:32;7.38;;;1.30;;
11743;SDS011;5929;51.906;7.674;2023-06-04T11:30:59;4.85;;;1.08;;
11743;SDS011;5929;51.906;7.674;2023-06-04T11:33:28;3.08;;;0.98;;
11743;SDS011;5929;51.906;7.674;2023-06-04T11:35:55;9.40;;;1.35;;
11743;SDS011;5929;51.906;7.674;2023-06-04T11:38:22;5.05;;;1.20;;
11743;SDS011;5929;51.906;7.674;2023-06-04T11:40:56;4.50;;;1.23;;
11743;SDS011;5929;51.906;7.674;2023-06-04T11:43:26;3.97;;;1.33;;
11743;SDS011;5929;51.906;7.674;2023-06-04T11:45:53;3.80;;;1.58;;
11743;SDS011;5929;51.906;7.674;2023-06-04T11:48:20;6.05;;;1.20;;
11743;SDS011;5929;51.906;7.674;2023-06-04T11:50:47;4.22;;;1.48;;
11743;SDS011;5929;51.906;7.674;2023-06-04T11:53:17;6.20;;;1.15;;
11743;SDS011;5929;51.906;7.674;2023-06-04T11:55:44;4.20;;;1.20;;
11743;SDS011;5929;51.906;7.674;2023-06-04T11:58:11;5.88;;;1.20;;
11743;SDS011;5929;51.906;7.674;2023-06-04T12:00:39;2.20;;;0.88;;
11743;SDS011;5929;51.906;7.674;2023-06-04T12:03:07;3.38;;;1.23;;
11743;SDS011;5929;51.906;7.674;2023-06-04T12:05:36;3.55;;;1.33;;
11743;SDS011;5929;51.906;7.674;2023-06-04T12:08:03;4.65;;;1.10;;
11743;SDS011;5929;51.906;7.674;2023-06-04T12:10:36;4.03;;;1.23;;
11743;SDS011;5929;51.906;7.674;2023-06-04T12:13:03;2.88;;;1.05;;
11743;SDS011;5929;51.906;7.674;2023-06-04T12:15:30;6.75;;;1.42;;
11743;SDS011;5929;51.906;7.674;2023-06-04T12:17:58;4.13;;;1.00;;
11743;SDS011;5929;51.906;7.674;2023-06-04T12:20:32;4.78;;;1.10;;
11743;SDS011;5929;51.906;7.674;2023-06-04T12:22:59;4.13;;;1.13;;
11743;SDS011;5929;51.906;7.674;2023-06-04T12:25:27;4.25;;;1.33;;
11743;SDS011;5929;51.906;7.674;2023-06-04T12:27:57;5.90;;;1.38;;
11743;SDS011;5929;51.906;7.674;2023-06-04T12:30:34;5.03;;;1.33;;
11743;SDS011;5929;51.906;7.674;2023-06-04T12:33:03;3.78;;;1.15;;
11743;SDS011;5929;51.906;7.674;2023-06-04T12:35:30;6.80;;;1.38;;
11743;SDS011;5929;51.906;7.674;2023-06-04T12:37:57;3.75;;;1.00;;
11743;SDS011;5929;51.906;7.674;2023-06-04T12:40:23;3.22;;;1.13;;
11743;SDS011;5929;51.906;7.674;2023-06-04T12:42:50;4.28;;;1.10;;
11743;SDS011;5929;51.906;7.674;2023-06-04T12:45:17;2.90;;;1.00;;
11743;SDS011;5929;51.906;7.674;2023-06-04T12:47:44;3.22;;;1.08;;
11743;SDS011;5929;51.906;7.674;2023-06-04T12:50:13;3.60;;;1.10;;
11743;SDS011;5929;51.906;7.674;2023-06-04T12:52:40;4.18;;;0.95;;
11743;SDS011;5929;51.906;7.674;2023-06-04T12:55:09;6.43;;;1.23;;
11743;SDS011;5929;51.906;7.674;2023-06-04T12:57:36;4.65;;;1.27;;
11743;SDS011;5929;51.906;7.674;2023-06-04T13:00:03;5.15;;;1.63;;
11743;SDS011;5929;51.906;7.674;2023-06-04T13:02:32;3.63;;;1.02;;
11743;SDS011;5929;51.906;7.674;2023-06-04T13:04:59;5.22;;;1.27;;
11743;SDS011;5929;51.906;7.674;2023-06-04T13:07:27;4.32;;;1.30;;
11743;SDS011;5929;51.906;7.674;2023-06-04T13:09:56;3.45;;;1.10;;
11743;SDS011;5929;51.906;7.674;2023-06-04T13:12:23;4.78;;;1.20;;
11743;SDS011;5929;51.906;7.674;2023-06-04T13:14:50;3.67;;;1.15;;
11743;SDS011;5929;51.906;7.674;2023-06-04T13:17:17;4.00;;;1.13;;
11743;SDS011;5929;51.906;7.674;2023-06-04T13:19:46;4.53;;;1.13;;
11743;SDS011;5929;51.906;7.674;2023-06-04T13:22:13;4.07;;;1.00;;
11743;SDS011;5929;51.906;7.674;2023-06-04T13:24:41;3.83;;;1.10;;
11743;SDS011;5929;51.906;7.674;2023-06-04T13:27:10;5.95;;;1.20;;
11743;SDS011;5929;51.906;7.674;2023-06-04T13:29:37;3.25;;;1.15;;
11743;SDS011;5929;51.906;7.674;2023-06-04T13:32:04;5.15;;;1.27;;
11743;SDS011;5929;51.906;7.674;2023-06-04T13:34:31;3.63;;;1.30;;
11743;SDS011;5929;51.906;7.674;2023-06-04T13:36:58;3.40;;;1.00;;
11743;SDS011;5929;51.906;7.674;2023-06-04T13:39:25;4.72;;;1.10;;
11743;SDS011;5929;51.906;7.674;2023-06-04T13:41:53;3.30;;;1.10;;
11743;SDS011;5929;51.906;7.674;2023-06-04T13:44:21;3.97;;;1.08;;
11743;SDS011;5929;51.906;7.674;2023-06-04T13:46:51;3.42;;;1.17;;
11743;SDS011;5929;51.906;7.674;2023-06-04T13:49:20;3.33;;;1.23;;
11743;SDS011;5929;51.906;7.674;2023-06-04T13:51:47;3.63;;;1.08;;
11743;SDS011;5929;51.906;7.674;2023-06-04T13:54:14;5.00;;;1.30;;
11743;SDS011;5929;51.906;7.674;2023-06-04T13:56:43;3.40;;;1.10;;
11743;SDS011;5929;51.906;7.674;2023-06-04T13:59:14;4.00;;;1.35;;
11743;SDS011;5929;51.906;7.674;2023-06-04T14:01:41;3.22;;;1.27;;
11743;SDS011;5929;51.906;7.674;2023-06-04T14:04:07;3.90;;;1.05;;
11743;SDS011;5929;51.906;7.674;2023-06-04T14:06:36;3.88;;;1.17;;
11743;SDS011;5929;51.906;7.674;2023-06-04T14:09:06;3.80;;;1.20;;
11743;SDS011;5929;51.906;7.674;2023-06-04T14:11:34;3.83;;;1.20;;
11743;SDS011;5929;51.906;7.674;2023-06-04T14:14:03;4.07;;;1.33;;
11743;SDS011;5929;51.906;7.674;2023-06-04T14:16:31;3.80;;;1.30;;
11743;SDS011;5929;51.906;7.674;2023-06-04T14:18:58;4.13;;;1.33;;
11743;SDS011;5929;51.906;7.674;2023-06-04T14:21:26;6.43;;;1.15;;
11743;SDS011;5929;51.906;7.674;2023-06-04T14:23:53;3.90;;;0.95;;
11743;SDS011;5929;51.906;7.674;2023-06-04T14:26:19;3.25;;;1.10;;
11743;SDS011;5929;51.906;7.674;2023-06-04T14:28:47;3.53;;;0.90;;
11743;SDS011;5929;51.906;7.674;2023-06-04T14:31:16;3.45;;;1.40;;
11743;SDS011;5929;51.906;7.674;2023-06-04T14:33:44;3.92;;;1.10;;
11743;SDS011;5929;51.906;7.674;2023-06-04T14:36:11;3.58;;;1.10;;
11743;SDS011;5929;51.906;7.674;2023-06-04T14:38:38;5.13;;;1.50;;
11743;SDS011;5929;51.906;7.674;2023-06-04T14:41:05;3.25;;;1.00;;
11743;SDS011;5929;51.906;7.674;2023-06-04T14:43:32;4.95;;;1.38;;
11743;SDS011;5929;51.906;7.674;2023-06-04T14:45:59;3.65;;;1.33;;
11743;SDS011;5929;51.906;7.674;2023-06-04T14:48:25;2.88;;;0.98;;
11743;SDS011;5929;51.906;7.674;2023-06-04T14:50:54;4.57;;;1.20;;
11743;SDS011;5929;51.906;7.674;2023-06-04T14:53:20;5.20;;;1.20;;
11743;SDS011;5929;51.906;7.674;2023-06-04T14:55:48;3.50;;;1.23;;
11743;SDS011;5929;51.906;7.674;2023-06-04T14:58:15;6.18;;;1.20;;
11743;SDS011;5929;51.906;7.674;2023-06-04T15:00:42;4.22;;;1.27;;
11743;SDS011;5929;51.906;7.674;2023-06-04T15:03:08;3.45;;;1.25;;
11743;SDS011;5929;51.906;7.674;2023-06-04T15:05:35;3.40;;;1.20;;
11743;SDS011;5929;51.906;7.674;2023-06-04T15:08:04;3.13;;;1.15;;
11743;SDS011;5929;51.906;7.674;2023-06-04T15:10:31;2.65;;;1.00;;
11743;SDS011;5929;51.906;7.674;2023-06-04T15:12:58;3.25;;;1.10;;
11743;SDS011;5929;51.906;7.674;2023-06-04T15:15:25;2.70;;;1.00;;
11743;SDS011;5929;51.906;7.674;2023-06-04T15:17:54;6.45;;;1.40;;
11743;SDS011;5929;51.906;7.674;2023-06-04T15:20:21;3.90;;;1.42;;
11743;SDS011;5929;51.906;7.674;2023-06-04T15:22:50;6.65;;;1.30;;
11743;SDS011;5929;51.906;7.674;2023-06-04T15:25:18;4.30;;;1.48;;
11743;SDS011;5929;51.906;7.674;2023-06-04T15:27:45;4.63;;;1.17;;
11743;SDS011;5929;51.906;7.674;2023-06-04T15:30:12;3.75;;;1.20;;
11743;SDS011;5929;51.906;7.674;2023-06-04T15:32:39;4.13;;;1.30;;
11743;SDS011;5929;51.906;7.674;2023-06-04T15:35:06;4.00;;;1.50;;
11743;SDS011;5929;51.906;7.674;2023-06-04T15:37:33;2.75;;;1.17;;
11743;SDS011;5929;51.906;7.674;2023-06-04T15:40:00;3.15;;;1.50;;
11743;SDS011;5929;51.906;7.674;2023-06-04T15:42:29;4.22;;;1.30;;
11743;SDS011;5929;51.906;7.674;2023-06-04T15:44:56;4.35;;;1.55;;
11743;SDS011;5929;51.906;7.674;2023-06-04T15:47:23;3.15;;;1.10;;
11743;SDS011;5929;51.906;7.674;2023-06-04T15:49:50;4.13;;;1.00;;
11743;SDS011;5929;51.906;7.674;2023-06-04T15:52:16;3.97;;;1.33;;
11743;SDS011;5929;51.906;7.674;2023-06-04T15:54:44;3.35;;;1.20;;
11743;SDS011;5929;51.906;7.674;2023-06-04T15:57:11;5.13;;;1.58;;
11743;SDS011;5929;51.906;7.674;2023-06-04T15:59:40;4.15;;;1.30;;
11743;SDS011;5929;51.906;7.674;2023-06-04T16:02:07;2.75;;;0.93;;
11743;SDS011;5929;51.906;7.674;2023-06-04T16:04:34;3.25;;;1.30;;
11743;SDS011;5929;51.906;7.674;2023-06-04T16:07:00;3.85;;;1.10;;